Time;durP1;ratioP1;P1;durP2;ratioP2;P2;SDS_P1;SDS_P2;PMS_P1;PMS_P2;Temp;Humidity;BMP_temperature;BMP_pressure;BME280_temperature;BME280_humidity;BME280_pressure;Samples;Min_cycle;Max_cycle;Signal;HPM_P1;HPM_P2
2021/04/02 00:00:49;;;;;;;66.93;30.70;;;;;;;13.86;63.38;96398.63;5038421;28;20972;-87
2021/04/02 00:03:18;;;;;;;58.50;31.63;;;;;;;13.85;63.25;96394.47;5038691;28;20439;-87
2021/04/02 00:05:46;;;;;;;52.13;30.03;;;;;;;13.77;63.78;96391.16;5038867;28;20418;-86
2021/04/02 00:08:12;;;;;;;60.37;31.07;;;;;;;13.64;64.11;96394.19;5038456;28;20852;-85
2021/04/02 00:10:48;;;;;;;65.03;31.03;;;;;;;13.68;64.17;96391.06;5037863;28;20554;-85
2021/04/02 00:13:15;;;;;;;58.13;32.50;;;;;;;13.54;64.82;96390.69;5038359;28;20443;-86
2021/04/02 00:15:41;;;;;;;58.20;30.37;;;;;;;13.51;64.99;96386.38;5038107;28;20535;-86
2021/04/02 00:18:08;;;;;;;59.47;31.93;;;;;;;13.43;65.41;96390.44;5038757;28;20478;-86
2021/04/02 00:20:36;;;;;;;58.97;33.23;;;;;;;13.44;65.48;96397.31;5038604;28;20455;-86
2021/04/02 00:23:04;;;;;;;62.87;32.37;;;;;;;13.52;65.18;96392.53;5038010;28;20414;-86
2021/04/02 00:25:31;;;;;;;57.03;31.17;;;;;;;13.33;65.92;96387.66;5038818;28;20913;-86
2021/04/02 00:27:57;;;;;;;61.60;33.57;;;;;;;13.24;66.35;96386.31;5037870;28;20844;-86
2021/04/02 00:30:27;;;;;;;59.07;33.00;;;;;;;13.15;66.71;96378.81;5037748;28;20469;-87
2021/04/02 00:32:53;;;;;;;65.00;32.80;;;;;;;13.17;67.02;96378.25;5038193;28;20454;-86
2021/04/02 00:35:20;;;;;;;67.30;34.10;;;;;;;13.09;67.04;96381.03;5038204;28;20873;-86
2021/04/02 00:37:46;;;;;;;63.13;31.00;;;;;;;13.01;67.59;96376.91;5038043;28;20443;-87
2021/04/02 00:40:18;;;;;;;52.97;32.40;;;;;;;13.04;67.57;96367.69;5037886;28;20432;-87
2021/04/02 00:42:46;;;;;;;62.13;33.83;;;;;;;13.04;67.51;96375.81;5038092;28;20397;-87
2021/04/02 00:45:14;;;;;;;63.63;35.77;;;;;;;13.09;67.66;96372.91;5038120;28;20456;-86
2021/04/02 00:47:40;;;;;;;58.27;33.30;;;;;;;13.00;67.73;96373.47;5038538;28;20538;-86
2021/04/02 00:50:12;;;;;;;65.50;32.50;;;;;;;12.87;68.17;96371.09;5039405;28;20535;-86
2021/04/02 00:52:38;;;;;;;65.63;33.17;;;;;;;12.84;68.37;96374.91;5038906;28;20479;-86
2021/04/02 00:55:05;;;;;;;57.50;32.30;;;;;;;12.86;68.16;96369.66;5038917;28;20508;-86
2021/04/02 00:57:33;;;;;;;60.90;33.87;;;;;;;12.77;68.87;96364.84;5038389;28;20531;-86
2021/04/02 00:59:59;;;;;;;62.20;32.67;;;;;;;12.74;68.95;96371.38;5039316;28;20450;-86
2021/04/02 01:02:26;;;;;;;70.87;36.80;;;;;;;12.57;69.95;96372.03;5038336;28;20994;-85
2021/04/02 01:04:52;;;;;;;60.20;34.80;;;;;;;12.50;70.27;96367.41;5043225;28;20387;-86
2021/04/02 01:07:19;;;;;;;64.57;35.07;;;;;;;12.58;69.89;96373.50;5058452;28;20503;-87
2021/04/02 01:09:45;;;;;;;60.17;35.47;;;;;;;12.49;70.32;96373.38;5052652;28;20449;-86
2021/04/02 01:12:12;;;;;;;66.33;35.10;;;;;;;12.47;70.04;96379.31;5037856;28;20483;-86
2021/04/02 01:14:39;;;;;;;65.57;34.00;;;;;;;12.48;70.16;96380.78;5037952;28;20475;-86
2021/04/02 01:17:06;;;;;;;69.47;34.70;;;;;;;12.37;70.17;96381.22;5037955;28;20439;-86
2021/04/02 01:19:36;;;;;;;57.73;33.00;;;;;;;12.36;70.60;96368.94;5037889;28;20455;-86
2021/04/02 01:22:05;;;;;;;52.90;29.77;;;;;;;12.20;70.29;96367.59;5038321;28;20455;-86
2021/04/02 01:24:41;;;;;;;54.80;30.70;;;;;;;12.07;70.90;96365.16;5042307;28;20556;-86
2021/04/02 01:27:27;;;;;;;50.00;28.17;;;;;;;12.11;70.46;96371.63;5042418;28;20831;-86
2021/04/02 01:29:56;;;;;;;54.17;28.67;;;;;;;12.07;70.19;96370.56;5041897;28;20445;-87
2021/04/02 01:32:26;;;;;;;47.13;23.03;;;;;;;11.97;70.55;96375.84;5041780;28;20489;-86
2021/04/02 01:34:56;;;;;;;40.83;25.57;;;;;;;11.85;70.44;96377.53;5042176;28;20926;-86
2021/04/02 01:37:27;;;;;;;46.73;23.63;;;;;;;11.97;69.83;96367.00;5042426;28;20459;-86
2021/04/02 01:39:56;;;;;;;40.10;21.83;;;;;;;11.79;70.67;96368.91;5041477;28;20968;-86
2021/04/02 01:42:24;;;;;;;45.87;23.40;;;;;;;11.77;70.84;96366.75;5043849;28;20991;-85
2021/04/02 01:44:52;;;;;;;41.03;21.60;;;;;;;11.70;70.79;96362.09;5061959;28;20460;-87
2021/04/02 01:47:20;;;;;;;35.30;19.43;;;;;;;11.63;70.53;96364.78;5062058;28;20435;-87
2021/04/02 01:49:47;;;;;;;39.17;22.33;;;;;;;11.61;70.47;96368.06;5061965;28;20409;-87
2021/04/02 01:52:15;;;;;;;41.43;21.93;;;;;;;11.57;71.12;96381.22;5053476;28;20553;-86
2021/04/02 01:54:42;;;;;;;39.03;21.00;;;;;;;11.51;71.58;96383.41;5041617;28;20601;-86
2021/04/02 01:57:11;;;;;;;37.10;19.67;;;;;;;11.48;71.56;96373.69;5041884;28;20426;-86
2021/04/02 01:59:38;;;;;;;37.80;21.57;;;;;;;11.45;71.71;96374.78;5042136;28;20450;-86
2021/04/02 02:02:06;;;;;;;39.97;20.17;;;;;;;11.38;72.03;96380.91;5041437;28;20426;-87
2021/04/02 02:04:34;;;;;;;36.20;20.33;;;;;;;11.19;72.57;96380.59;5041767;28;20431;-87
2021/04/02 02:07:02;;;;;;;34.23;20.00;;;;;;;11.32;72.30;96380.38;5041664;28;20414;-86
2021/04/02 02:09:30;;;;;;;36.73;19.27;;;;;;;11.29;72.25;96376.06;5041256;28;20514;-86
2021/04/02 02:12:00;;;;;;;38.07;19.13;;;;;;;11.14;72.74;96379.53;5041194;28;20489;-86
2021/04/02 02:14:30;;;;;;;36.00;18.43;;;;;;;11.12;72.91;96375.94;5040944;28;20509;-86
2021/04/02 02:16:59;;;;;;;35.27;17.20;;;;;;;11.13;72.76;96380.06;5041436;28;20414;-86
2021/04/02 02:19:28;;;;;;;30.03;16.63;;;;;;;11.06;73.42;96370.72;5040945;28;20524;-87
2021/04/02 02:21:56;;;;;;;35.20;19.00;;;;;;;10.96;73.35;96372.53;5041214;28;20870;-86
2021/04/02 02:24:24;;;;;;;27.20;15.97;;;;;;;10.93;73.60;96378.31;5040786;28;20414;-87
2021/04/02 02:26:50;;;;;;;34.97;18.20;;;;;;;10.75;74.17;96383.53;5040869;28;20454;-87
2021/04/02 02:29:16;;;;;;;37.50;18.40;;;;;;;10.64;75.24;96385.88;5041204;28;20526;-87
2021/04/02 02:31:43;;;;;;;25.63;15.73;;;;;;;10.66;74.61;96375.97;5040676;28;20487;-86
2021/04/02 02:34:09;;;;;;;36.10;17.87;;;;;;;10.78;74.47;96373.63;5039673;28;20505;-86
2021/04/02 02:36:36;;;;;;;27.83;15.40;;;;;;;10.75;74.33;96378.13;5039941;28;20442;-86
2021/04/02 02:39:08;;;;;;;26.63;14.70;;;;;;;10.75;74.00;96374.69;5040906;28;20523;-86
2021/04/02 02:41:35;;;;;;;24.97;14.20;;;;;;;10.74;74.34;96381.38;5040203;28;20441;-86
2021/04/02 02:44:01;;;;;;;22.00;14.17;;;;;;;10.65;74.01;96381.91;5040864;28;20431;-86
2021/04/02 02:46:28;;;;;;;30.73;14.50;;;;;;;10.54;74.64;96379.56;5041982;28;20417;-86
2021/04/02 02:49:02;;;;;;;24.80;13.77;;;;;;;10.53;74.50;96386.22;5060684;28;20442;-86
2021/04/02 02:51:30;;;;;;;25.93;13.60;;;;;;;10.48;75.21;96381.72;5060530;28;20457;-86
2021/04/02 02:54:00;;;;;;;25.67;12.03;;;;;;;10.39;75.19;96385.66;5059951;28;20416;-86
2021/04/02 02:56:30;;;;;;;20.27;12.57;;;;;;;10.39;75.04;96379.56;5060540;28;20454;-86
2021/04/02 02:58:58;;;;;;;20.77;12.43;;;;;;;10.43;75.33;96379.94;5062165;28;20413;-86
2021/04/02 03:01:26;;;;;;;23.67;11.63;;;;;;;10.36;75.02;96373.25;5060150;28;20511;-86
2021/04/02 03:03:53;;;;;;;21.27;12.03;;;;;;;10.37;75.75;96382.78;5060150;28;20421;-86
2021/04/02 03:06:22;;;;;;;21.70;12.33;;;;;;;10.38;75.21;96380.81;5060230;28;20478;-86
2021/04/02 03:08:52;;;;;;;18.53;11.67;;;;;;;10.30;75.10;96380.09;5059922;28;20409;-86
2021/04/02 03:11:21;;;;;;;15.30;9.53;;;;;;;10.26;75.50;96377.75;5060202;28;20529;-86
2021/04/02 03:13:49;;;;;;;19.57;10.87;;;;;;;10.25;75.43;96380.97;5059765;28;20421;-86
2021/04/02 03:16:16;;;;;;;16.97;9.53;;;;;;;10.07;75.49;96386.13;5059138;28;20421;-86
2021/04/02 03:18:44;;;;;;;19.50;11.40;;;;;;;10.02;76.35;96381.59;5059072;28;20482;-86
2021/04/02 03:21:12;;;;;;;20.27;10.30;;;;;;;9.90;76.44;96369.00;5058555;28;20519;-86
2021/04/02 03:23:41;;;;;;;20.37;8.70;;;;;;;9.84;76.75;96377.25;5059236;28;20468;-88
2021/04/02 03:26:07;;;;;;;17.47;8.60;;;;;;;9.71;77.50;96382.75;5059357;28;20451;-87
2021/04/02 03:28:34;;;;;;;15.03;9.20;;;;;;;9.67;77.82;96372.34;5059176;28;20450;-87
2021/04/02 03:31:00;;;;;;;17.80;9.90;;;;;;;9.56;78.52;96374.63;5058403;28;20429;-88
2021/04/02 03:33:31;;;;;;;20.53;11.60;;;;;;;9.55;79.02;96371.19;5058722;28;21024;-87
2021/04/02 03:36:00;;;;;;;18.43;11.37;;;;;;;9.54;79.08;96367.09;5059284;28;20783;-87
2021/04/02 03:38:31;;;;;;;21.23;11.80;;;;;;;9.48;79.57;96363.81;5059069;28;20423;-87
2021/04/02 03:41:00;;;;;;;20.73;12.40;;;;;;;9.50;79.35;96365.97;5058853;28;20488;-87
2021/04/02 03:43:28;;;;;;;23.97;11.23;;;;;;;9.47;78.34;96367.75;5059570;28;20535;-87
2021/04/02 03:45:55;;;;;;;18.90;11.43;;;;;;;9.30;78.21;96359.44;5058184;28;20435;-88
2021/04/02 03:48:24;;;;;;;22.60;10.77;;;;;;;9.29;77.54;96357.25;5059151;28;20794;-88
2021/04/02 03:50:54;;;;;;;15.73;9.30;;;;;;;9.24;77.03;96366.22;5058001;28;20503;-88
2021/04/02 03:53:25;;;;;;;20.40;9.87;;;;;;;9.08;77.21;96368.81;5058517;28;20808;-88
2021/04/02 03:55:53;;;;;;;21.40;9.50;;;;;;;9.02;77.18;96367.53;5059200;28;20853;-88
2021/04/02 03:58:21;;;;;;;15.93;8.93;;;;;;;9.04;75.75;96368.44;5058617;28;20443;-86
2021/04/02 04:00:50;;;;;;;23.30;9.10;;;;;;;9.01;74.76;96374.88;5057700;28;20528;-86
2021/04/02 04:03:18;;;;;;;22.13;8.90;;;;;;;8.97;74.77;96373.75;5057693;28;20450;-86
2021/04/02 04:05:48;;;;;;;13.80;7.47;;;;;;;8.93;75.03;96381.44;5045809;28;20459;-86
2021/04/02 04:08:17;;;;;;;17.73;7.57;;;;;;;8.86;75.39;96372.09;5038771;28;20463;-86
2021/04/02 04:10:45;;;;;;;13.00;8.70;;;;;;;8.81;75.33;96370.25;5038017;28;20835;-86
2021/04/02 04:13:14;;;;;;;13.07;8.50;;;;;;;8.73;75.68;96371.44;5038123;28;20479;-86
2021/04/02 04:15:41;;;;;;;22.43;7.80;;;;;;;8.69;75.68;96362.97;5038448;28;20582;-86
2021/04/02 04:18:09;;;;;;;15.13;8.73;;;;;;;8.58;74.58;96358.63;5038070;28;20458;-86
2021/04/02 04:20:36;;;;;;;14.23;7.20;;;;;;;8.56;75.04;96372.56;5037791;28;20939;-85
2021/04/02 04:23:04;;;;;;;11.10;6.60;;;;;;;8.50;73.28;96374.69;5037753;28;20850;-85
2021/04/02 04:25:32;;;;;;;10.37;6.00;;;;;;;8.44;73.10;96379.47;5037749;28;20512;-85
2021/04/02 04:27:59;;;;;;;15.03;6.53;;;;;;;8.34;72.70;96373.09;5037190;28;20447;-86
2021/04/02 04:30:27;;;;;;;8.50;5.53;;;;;;;8.24;72.24;96374.06;5038104;28;20521;-84
2021/04/02 04:32:55;;;;;;;13.47;5.40;;;;;;;8.20;72.53;96369.00;5038275;28;20483;-85
2021/04/02 04:35:22;;;;;;;12.87;5.87;;;;;;;8.12;72.99;96367.47;5037940;28;20530;-85
2021/04/02 04:37:50;;;;;;;11.47;5.87;;;;;;;8.11;73.46;96366.06;5038044;28;20441;-84
2021/04/02 04:40:18;;;;;;;8.70;5.80;;;;;;;8.06;73.15;96379.09;5038097;28;20443;-85
2021/04/02 04:42:46;;;;;;;18.03;5.87;;;;;;;8.11;72.72;96371.44;5037570;28;20531;-86
2021/04/02 04:45:17;;;;;;;9.03;5.07;;;;;;;7.97;72.87;96373.44;5037432;28;20474;-85
2021/04/02 04:47:43;;;;;;;10.57;5.00;;;;;;;7.95;71.82;96373.97;5037093;28;20852;-85
2021/04/02 04:50:10;;;;;;;9.80;4.90;;;;;;;7.84;71.71;96374.19;5036918;28;20526;-85
2021/04/02 04:52:49;;;;;;;6.20;4.57;;;;;;;7.78;71.55;96372.84;5037964;28;20562;-86
2021/04/02 04:55:18;;;;;;;10.97;4.07;;;;;;;7.71;71.05;96379.59;5037667;28;20411;-85
2021/04/02 04:57:45;;;;;;;10.03;4.60;;;;;;;7.59;70.79;96373.00;5037953;28;20437;-86
2021/04/02 05:00:13;;;;;;;6.57;4.17;;;;;;;7.48;71.80;96371.28;5038509;28;20445;-86
2021/04/02 05:02:43;;;;;;;10.17;4.57;;;;;;;7.53;71.46;96380.44;5052424;28;20427;-87
2021/04/02 05:05:15;;;;;;;9.03;4.90;;;;;;;7.58;71.44;96386.97;5058568;28;20417;-87
2021/04/02 05:07:43;;;;;;;17.00;4.60;;;;;;;7.55;71.14;96383.34;5057892;28;20430;-86
2021/04/02 05:10:11;;;;;;;7.70;4.30;;;;;;;7.58;70.82;96384.28;5058070;28;20486;-86
2021/04/02 05:12:40;;;;;;;10.57;4.10;;;;;;;7.50;71.63;96376.84;5038610;28;20479;-85
2021/04/02 05:15:08;;;;;;;3.93;3.53;;;;;;;7.60;70.78;96384.47;5037957;28;20466;-84
2021/04/02 05:17:35;;;;;;;16.63;4.10;;;;;;;7.80;69.62;96391.88;5037914;28;20518;-85
2021/04/02 05:20:02;;;;;;;8.23;4.67;;;;;;;7.95;69.00;96392.03;5038488;28;20542;-85
2021/04/02 05:22:28;;;;;;;12.50;4.17;;;;;;;8.08;68.19;96392.72;5037466;28;20459;-85
2021/04/02 05:24:54;;;;;;;4.60;3.70;;;;;;;8.05;67.79;96395.72;5038931;28;20853;-85
2021/04/02 05:27:20;;;;;;;8.13;3.37;;;;;;;8.16;67.53;96398.16;5037959;28;20465;-85
2021/04/02 05:29:47;;;;;;;6.30;4.00;;;;;;;8.23;67.20;96402.91;5036264;28;20447;-85
2021/04/02 05:32:13;;;;;;;8.03;4.10;;;;;;;8.39;66.81;96409.19;5038774;28;20490;-86
2021/04/02 05:34:39;;;;;;;4.47;3.13;;;;;;;8.51;65.43;96403.03;5038070;28;20962;-87
2021/04/02 05:37:05;;;;;;;11.33;4.60;;;;;;;8.59;65.83;96401.09;5038368;28;20514;-84
2021/04/02 05:39:31;;;;;;;5.83;3.93;;;;;;;8.86;64.35;96400.97;5038483;28;20447;-86
2021/04/02 05:42:03;;;;;;;5.83;3.63;;;;;;;8.86;64.26;96406.34;5041549;28;20470;-85
2021/04/02 05:44:31;;;;;;;7.43;4.13;;;;;;;9.38;62.17;96413.31;5058115;28;20433;-85
2021/04/02 05:47:01;;;;;;;7.10;3.70;;;;;;;9.73;61.50;96420.69;5058112;28;20415;-87
2021/04/02 05:49:28;;;;;;;14.10;4.57;;;;;;;10.11;60.13;96426.22;5050876;28;20420;-85
2021/04/02 05:51:56;;;;;;;9.80;4.10;;;;;;;10.21;59.14;96427.88;5037933;28;20490;-85
2021/04/02 05:54:28;;;;;;;6.57;4.10;;;;;;;10.13;59.58;96423.69;5037670;28;20448;-85
2021/04/02 05:56:55;;;;;;;4.20;2.80;;;;;;;10.58;58.35;96429.22;5037796;28;20756;-86
2021/04/02 05:59:21;;;;;;;7.47;4.10;;;;;;;10.59;57.93;96422.56;5037787;28;20432;-86
2021/04/02 06:01:48;;;;;;;5.70;4.00;;;;;;;10.38;58.38;96430.06;5037078;28;20533;-86
2021/04/02 06:04:16;;;;;;;7.60;3.63;;;;;;;11.02;57.31;96421.69;5037024;28;20418;-86
2021/04/02 06:06:42;;;;;;;6.90;4.60;;;;;;;11.68;54.80;96431.47;5037727;28;20525;-86
2021/04/02 06:09:08;;;;;;;5.80;4.00;;;;;;;11.88;53.98;96421.66;5038678;28;20534;-86
2021/04/02 06:11:36;;;;;;;9.93;4.90;;;;;;;11.51;55.19;96421.22;5040865;28;20970;-85
2021/04/02 06:14:03;;;;;;;8.30;4.60;;;;;;;11.74;54.33;96430.03;5040170;28;20517;-86
2021/04/02 06:16:29;;;;;;;5.63;4.60;;;;;;;12.30;53.14;96422.56;5041201;28;20460;-85
2021/04/02 06:18:57;;;;;;;8.97;5.70;;;;;;;12.38;52.38;96427.91;5040581;28;20552;-85
2021/04/02 06:21:26;;;;;;;6.80;4.70;;;;;;;11.88;53.42;96429.78;5040799;28;20482;-86
2021/04/02 06:23:52;;;;;;;14.20;5.57;;;;;;;12.18;52.97;96414.16;5041825;28;20478;-87
2021/04/02 06:26:18;;;;;;;8.90;5.23;;;;;;;12.03;53.39;96416.22;5041218;28;20477;-87
2021/04/02 06:28:44;;;;;;;11.97;4.70;;;;;;;12.21;52.70;96423.16;5041476;28;20545;-88
2021/04/02 06:31:12;;;;;;;9.87;4.70;;;;;;;11.60;53.98;96409.84;5040977;28;20552;-87
2021/04/02 06:33:40;;;;;;;7.77;5.80;;;;;;;11.85;53.59;96420.78;5041017;28;20453;-88
2021/04/02 06:36:13;;;;;;;5.53;5.00;;;;;;;12.41;52.32;96414.00;5039396;28;20483;-88
2021/04/02 06:38:43;;;;;;;11.00;6.30;;;;;;;12.04;52.63;96423.78;5039407;28;20892;-87
2021/04/02 06:41:10;;;;;;;8.60;5.70;;;;;;;11.24;55.09;96423.59;5042339;28;20527;-87
2021/04/02 06:43:41;;;;;;;9.47;4.90;;;;;;;10.79;56.81;96423.66;5041332;28;20872;-87
2021/04/02 06:46:09;;;;;;;7.27;5.20;;;;;;;10.79;57.34;96428.31;5041583;28;20451;-87
2021/04/02 06:48:35;;;;;;;10.77;6.57;;;;;;;11.15;56.38;96434.28;5040804;28;20806;-87
2021/04/02 06:51:01;;;;;;;8.80;6.40;;;;;;;11.49;54.84;96433.84;5041710;28;20525;-87
2021/04/02 06:53:29;;;;;;;9.67;6.07;;;;;;;11.94;53.70;96435.72;5040915;28;20548;-86
2021/04/02 06:55:57;;;;;;;11.27;6.33;;;;;;;12.37;51.96;96432.63;5041281;28;20446;-87
2021/04/02 06:58:26;;;;;;;7.13;5.50;;;;;;;12.70;51.00;96438.72;5041075;28;20522;-87
2021/04/02 07:00:52;;;;;;;8.57;5.90;;;;;;;12.58;51.64;96438.44;5041125;28;20987;-88
2021/04/02 07:03:19;;;;;;;9.10;6.07;;;;;;;12.72;51.06;96444.31;5043006;28;20425;-88
2021/04/02 07:05:46;;;;;;;8.27;5.70;;;;;;;13.05;50.24;96444.97;5040493;28;20531;-88
2021/04/02 07:08:16;;;;;;;8.27;6.03;;;;;;;12.92;50.67;96450.66;5040433;28;20530;-89
2021/04/02 07:10:43;;;;;;;8.10;5.47;;;;;;;12.93;50.41;96449.41;5041947;28;20459;-90
2021/04/02 07:13:12;;;;;;;10.80;6.13;;;;;;;12.72;51.19;96447.72;5041706;28;20513;-91
2021/04/02 07:15:38;;;;;;;7.40;5.90;;;;;;;12.78;50.85;96452.94;5042401;28;20447;-89
2021/04/02 07:18:07;;;;;;;8.60;6.03;;;;;;;12.69;51.22;96456.22;5041651;28;20533;-88
2021/04/02 07:20:34;;;;;;;12.83;5.60;;;;;;;12.24;52.02;96452.53;5041430;28;20900;-90
2021/04/02 07:23:00;;;;;;;9.20;6.13;;;;;;;12.21;52.89;96450.22;5041255;28;20469;-89
2021/04/02 07:25:27;;;;;;;11.10;7.03;;;;;;;12.14;52.69;96461.78;5041258;28;20480;-89
2021/04/02 07:27:54;;;;;;;9.20;6.80;;;;;;;11.64;53.92;96461.56;5040849;28;20412;-88
2021/04/02 07:30:24;;;;;;;10.50;7.37;;;;;;;11.87;53.94;96458.09;5041526;28;20834;-85
2021/04/02 07:32:51;;;;;;;11.87;7.03;;;;;;;12.12;53.41;96458.91;5040931;28;20475;-88
2021/04/02 07:35:19;;;;;;;12.70;7.67;;;;;;;11.89;53.56;96452.84;5040661;28;20498;-88
2021/04/02 07:37:51;;;;;;;7.70;6.50;;;;;;;12.52;52.29;96456.19;5040580;28;20510;-89
2021/04/02 07:40:20;;;;;;;8.80;6.47;;;;;;;12.41;52.26;96443.78;5041509;28;20440;-89
2021/04/02 07:42:51;;;;;;;10.43;6.80;;;;;;;12.12;53.33;96453.50;5040384;28;20418;-89
2021/04/02 07:45:20;;;;;;;9.00;6.80;;;;;;;12.43;52.54;96454.78;5040535;28;20418;-89
2021/04/02 07:47:53;;;;;;;9.20;6.43;;;;;;;12.42;52.87;96466.16;5040486;28;20786;-87
2021/04/02 07:50:41;;;;;;;15.00;8.10;;;;;;;12.52;52.42;96467.72;5040930;28;20523;-87
2021/04/02 07:53:13;;;;;;;12.87;7.70;;;;;;;12.47;52.45;96459.81;5040006;28;20565;-88
2021/04/02 07:55:47;;;;;;;8.00;7.20;;;;;;;12.76;52.04;96458.91;5040399;28;20540;-88
2021/04/02 07:58:22;;;;;;;13.50;8.47;;;;;;;12.52;52.15;96451.47;5040790;28;20455;-88
2021/04/02 08:00:53;;;;;;;11.37;7.10;;;;;;;12.85;52.06;96461.00;5041266;28;20537;-88
2021/04/02 08:03:22;;;;;;;9.53;7.33;;;;;;;13.24;50.57;96466.88;5055513;28;20419;-86
2021/04/02 08:05:59;;;;;;;12.60;7.80;;;;;;;13.20;51.02;96472.69;5059118;28;20447;-87
2021/04/02 08:08:26;;;;;;;17.20;7.67;;;;;;;12.84;52.04;96472.41;5058661;28;20447;-87
2021/04/02 08:11:06;;;;;;;11.73;7.50;;;;;;;13.15;51.21;96464.78;5058952;28;20471;-88
2021/04/02 08:13:49;;;;;;;12.00;7.97;;;;;;;12.59;52.67;96466.94;5044349;28;20477;-88
2021/04/02 08:16:39;;;;;;;15.40;8.63;;;;;;;12.96;51.90;96469.97;5040209;28;20438;-88
2021/04/02 08:19:09;;;;;;;11.80;8.60;;;;;;;13.12;51.32;96463.91;5039468;28;20503;-88
2021/04/02 08:21:36;;;;;;;12.47;8.50;;;;;;;12.73;52.20;96459.28;5039159;28;20473;-89
2021/04/02 08:24:03;;;;;;;10.67;7.90;;;;;;;12.86;52.54;96470.56;5039406;28;20947;-88
2021/04/02 08:26:31;;;;;;;13.70;8.37;;;;;;;12.44;53.04;96469.00;5039824;28;20439;-88
2021/04/02 08:28:57;;;;;;;11.63;8.63;;;;;;;12.64;52.90;96463.31;5040241;28;20459;-88
2021/04/02 08:31:23;;;;;;;13.20;8.77;;;;;;;12.04;54.57;96471.72;5039961;28;20458;-88
2021/04/02 08:33:52;;;;;;;15.40;9.57;;;;;;;11.65;55.38;96459.59;5047838;28;20521;-87
2021/04/02 08:36:19;;;;;;;14.70;8.87;;;;;;;11.79;55.80;96460.81;5040732;28;20417;-87
2021/04/02 08:38:47;;;;;;;16.10;10.27;;;;;;;11.60;56.08;96461.19;5040605;28;20427;-87
2021/04/02 08:41:18;;;;;;;13.13;9.17;;;;;;;11.70;55.94;96470.22;5040137;28;20467;-87
2021/04/02 08:43:44;;;;;;;17.83;10.80;;;;;;;11.26;57.37;96469.00;5043411;28;20504;-93
2021/04/02 08:46:11;;;;;;;12.83;9.33;;;;;;;11.39;57.78;96462.69;5052200;28;20414;-86
2021/04/02 08:48:38;;;;;;;14.10;9.40;;;;;;;11.56;57.03;96471.66;5041446;28;20406;-86
2021/04/02 08:51:04;;;;;;;13.77;9.77;;;;;;;11.60;57.17;96474.72;5039521;28;20509;-86
2021/04/02 08:53:40;;;;;;;13.50;10.13;;;;;;;11.17;58.46;96467.56;5037985;28;20573;-86
2021/04/02 08:56:06;;;;;;;14.20;10.40;;;;;;;10.97;58.76;96470.44;5039404;28;20518;-86
2021/04/02 08:58:34;;;;;;;13.00;10.33;;;;;;;10.65;60.76;96463.56;5039859;28;20478;-86
2021/04/02 09:01:01;;;;;;;17.10;10.43;;;;;;;10.81;60.05;96466.31;5039541;28;20458;-87
2021/04/02 09:03:27;;;;;;;16.03;10.73;;;;;;;11.01;60.05;96463.44;5038318;28;20601;-86
2021/04/02 09:05:53;;;;;;;15.10;10.17;;;;;;;11.02;60.14;96466.84;5037919;28;20501;-86
2021/04/02 09:08:20;;;;;;;15.90;10.50;;;;;;;10.99;59.85;96457.13;5038965;28;20444;-86
2021/04/02 09:10:47;;;;;;;16.60;9.60;;;;;;;10.98;59.24;96459.09;5038833;28;20463;-87
2021/04/02 09:13:14;;;;;;;18.23;10.90;;;;;;;10.59;60.78;96465.72;5038413;28;20552;-88
2021/04/02 09:15:40;;;;;;;18.13;12.70;;;;;;;10.60;60.59;96452.94;5039787;28;20475;-87
2021/04/02 09:18:16;;;;;;;18.57;10.60;;;;;;;10.74;61.04;96457.63;5039927;28;20511;-87
2021/04/02 09:20:42;;;;;;;16.67;10.33;;;;;;;11.08;59.35;96460.00;5039730;28;20534;-86
2021/04/02 09:23:10;;;;;;;18.23;11.07;;;;;;;10.55;61.14;96453.84;5038559;28;20418;-86
2021/04/02 09:25:39;;;;;;;19.67;11.40;;;;;;;10.51;61.37;96461.56;5038625;28;20422;-86
2021/04/02 09:28:06;;;;;;;18.10;10.97;;;;;;;10.76;60.99;96462.50;5038685;28;20452;-86
2021/04/02 09:30:33;;;;;;;15.53;10.40;;;;;;;11.02;59.60;96462.19;5038217;28;20466;-87
2021/04/02 09:32:59;;;;;;;16.80;10.57;;;;;;;11.12;60.08;96454.94;5039473;28;20574;-87
2021/04/02 09:35:26;;;;;;;19.83;11.93;;;;;;;11.28;59.49;96456.38;5038893;28;20485;-85
2021/04/02 09:37:52;;;;;;;15.10;10.97;;;;;;;11.58;59.00;96463.75;5039790;28;20450;-86
2021/04/02 09:40:18;;;;;;;12.10;9.43;;;;;;;11.85;57.55;96464.03;5040165;28;20425;-87
2021/04/02 09:42:48;;;;;;;13.10;10.13;;;;;;;11.67;57.67;96465.88;5038478;28;20527;-86
2021/04/02 09:45:16;;;;;;;18.10;11.50;;;;;;;11.45;58.65;96463.22;5046144;28;20433;-87
2021/04/02 09:47:45;;;;;;;16.90;10.40;;;;;;;11.24;59.05;96468.84;5041965;28;20945;-87
2021/04/02 09:50:13;;;;;;;20.33;12.47;;;;;;;11.77;57.95;96464.09;5042242;28;20463;-88
2021/04/02 09:52:40;;;;;;;16.83;11.40;;;;;;;11.92;57.63;96463.31;5041654;28;20552;-86
2021/04/02 09:55:08;;;;;;;14.40;9.80;;;;;;;11.66;56.76;96475.25;5042422;28;20827;-86
2021/04/02 09:57:34;;;;;;;18.80;11.17;;;;;;;11.23;58.59;96478.19;5042424;28;20453;-85
2021/04/02 10:00:01;;;;;;;16.93;10.73;;;;;;;11.19;59.32;96467.75;5040987;28;20967;-86
2021/04/02 10:02:28;;;;;;;12.80;11.07;;;;;;;11.16;59.81;96465.41;5042816;28;20463;-86
2021/04/02 10:04:54;;;;;;;16.10;10.53;;;;;;;11.31;58.30;96467.38;5042552;28;20453;-85
2021/04/02 10:07:20;;;;;;;15.23;11.10;;;;;;;11.53;58.14;96472.00;5041789;28;20443;-88
2021/04/02 10:09:47;;;;;;;16.03;11.13;;;;;;;11.17;59.14;96464.16;5041633;28;20426;-87
2021/04/02 10:12:13;;;;;;;16.63;10.80;;;;;;;11.25;58.91;96475.66;5041523;28;20501;-86
2021/04/02 10:14:39;;;;;;;13.73;9.73;;;;;;;11.07;59.09;96472.06;5042828;28;20447;-86
2021/04/02 10:17:10;;;;;;;16.13;10.70;;;;;;;11.02;58.82;96467.56;5042352;28;20410;-86
2021/04/02 10:19:38;;;;;;;14.33;10.90;;;;;;;11.33;58.04;96460.19;5042049;28;20510;-87
2021/04/02 10:22:05;;;;;;;17.37;10.40;;;;;;;11.58;57.58;96452.94;5041411;28;20806;-88
2021/04/02 10:24:31;;;;;;;12.93;10.00;;;;;;;11.68;55.45;96459.19;5040533;28;20428;-87
2021/04/02 10:26:58;;;;;;;13.17;9.53;;;;;;;11.50;55.73;96470.41;5040351;28;20508;-87
2021/04/02 10:29:24;;;;;;;13.73;10.40;;;;;;;11.66;55.19;96466.41;5040945;28;20439;-87
2021/04/02 10:31:50;;;;;;;13.97;9.97;;;;;;;11.60;54.81;96458.50;5042143;28;20483;-87
2021/04/02 10:34:16;;;;;;;14.23;10.73;;;;;;;11.68;54.89;96463.91;5041471;28;20422;-87
2021/04/02 10:36:43;;;;;;;14.67;10.47;;;;;;;11.81;53.30;96464.41;5040807;28;20833;-86
2021/04/02 10:39:09;;;;;;;15.00;10.20;;;;;;;11.94;54.49;96465.44;5040709;28;20477;-86
2021/04/02 10:41:35;;;;;;;13.20;10.47;;;;;;;11.98;53.03;96457.69;5042433;28;20540;-87
2021/04/02 10:44:02;;;;;;;16.37;10.57;;;;;;;12.00;52.98;96466.69;5041022;28;20512;-87
2021/04/02 10:46:28;;;;;;;12.40;10.23;;;;;;;11.71;54.41;96460.13;5040888;28;20418;-87
2021/04/02 10:48:54;;;;;;;13.37;9.30;;;;;;;12.08;53.88;96453.16;5040999;28;20512;-87
2021/04/02 10:51:21;;;;;;;15.83;10.37;;;;;;;12.41;53.52;96449.19;5039996;28;20434;-86
2021/04/02 10:53:48;;;;;;;16.50;10.53;;;;;;;12.61;53.22;96445.47;5040201;28;20469;-86
2021/04/02 10:56:14;;;;;;;13.73;10.37;;;;;;;12.74;52.86;96452.59;5040736;28;20546;-87
2021/04/02 10:58:40;;;;;;;12.83;10.00;;;;;;;12.20;53.88;96448.75;5040059;28;20544;-88
2021/04/02 11:01:07;;;;;;;13.40;10.90;;;;;;;12.14;53.88;96450.97;5040114;28;20992;-87
2021/04/02 11:03:33;;;;;;;13.80;11.27;;;;;;;12.49;52.80;96441.03;5040695;28;20456;-86
2021/04/02 11:05:59;;;;;;;12.90;10.53;;;;;;;12.48;52.58;96445.72;5040863;28;20426;-87
2021/04/02 11:08:26;;;;;;;18.10;12.67;;;;;;;12.66;51.58;96457.34;5040347;28;20397;-88
2021/04/02 11:10:52;;;;;;;11.30;9.50;;;;;;;12.34;52.60;96453.38;5040135;28;20457;-88
2021/04/02 11:13:19;;;;;;;12.93;11.10;;;;;;;12.20;52.53;96446.78;5052257;28;20578;-86
2021/04/02 11:15:45;;;;;;;14.00;9.33;;;;;;;11.85;52.82;96449.81;5056037;28;20409;-86
2021/04/02 11:18:11;;;;;;;16.03;10.87;;;;;;;11.90;53.15;96440.78;5059001;28;20488;-86
2021/04/02 11:20:37;;;;;;;16.47;12.20;;;;;;;11.92;52.13;96444.38;5053797;28;20520;-86
2021/04/02 11:23:03;;;;;;;13.27;9.70;;;;;;;12.20;51.77;96446.78;5040067;28;20410;-86
2021/04/02 11:25:29;;;;;;;15.73;9.60;;;;;;;12.12;51.24;96434.56;5038857;28;20520;-87
2021/04/02 11:27:56;;;;;;;17.00;10.37;;;;;;;12.01;51.23;96445.78;5041213;28;20451;-86